Time;durP1;ratioP1;P1;durP2;ratioP2;P2;SDS_P1;SDS_P2;PMS_P1;PMS_P2;Temp;Humidity;BMP_temperature;BMP_pressure;BME280_temperature;BME280_humidity;BME280_pressure;Samples;Min_cycle;Max_cycle;Signal;HPM_P1;HPM_P2
2020/11/29 00:01:29;;;;;;;38.2;29.9;;;;;;;-0.22;82.7627;99147.87;;;;
2020/11/29 00:11:27;;;;;;;30.6;26.7;;;;;;;-0.21;82.6543;99137.03;;;;
2020/11/29 00:21:24;;;;;;;54.4;33;;;;;;;-0.2;83.4707;99143.95;;;;
2020/11/29 00:31:22;;;;;;;37.6;31.1;;;;;;;-0.15;84.6875;99140.64;;;;
2020/11/29 00:41:19;;;;;;;46;32.5;;;;;;;-0.2;85.89453;99137.84;;;;
2020/11/29 00:51:17;;;;;;;45.6;32.6;;;;;;;-0.31;86.67383;99128.81;;;;
2020/11/29 01:01:14;;;;;;;46.9;33.9;;;;;;;-0.35;87.20215;99124.21;;;;
2020/11/29 01:11:12;;;;;;;44.3;32.9;;;;;;;-0.39;87.57813;99121.2;;;;
2020/11/29 01:21:10;;;;;;;41;28.2;;;;;;;-0.41;87.50684;99109.2;;;;
2020/11/29 01:31:07;;;;;;;32.2;26.6;;;;;;;-0.47;87.67188;99107.45;;;;
2020/11/29 01:41:05;;;;;;;31.1;25;;;;;;;-0.5;87.40332;99095.48;;;;
2020/11/29 01:51:02;;;;;;;30.1;21.7;;;;;;;-0.62;87.88281;99090.12;;;;
2020/11/29 02:01:00;;;;;;;29.2;22.2;;;;;;;-0.61;87.75391;99070.56;;;;
2020/11/29 02:10:57;;;;;;;28.6;23.2;;;;;;;-0.63;87.93457;99055.95;;;;
2020/11/29 02:20:55;;;;;;;30.2;23.4;;;;;;;-0.67;88.0166;99055.59;;;;
2020/11/29 02:30:52;;;;;;;32.6;23.3;;;;;;;-0.69;87.97852;99046.23;;;;
2020/11/29 02:40:50;;;;;;;28.6;18.2;;;;;;;-0.78;88.58203;99023.77;;;;
2020/11/29 02:50:47;;;;;;;30.2;22.9;;;;;;;-0.77;88.78223;99020.91;;;;
2020/11/29 03:00:45;;;;;;;27.3;21.9;;;;;;;-0.7;88.35742;99018.17;;;;
2020/11/29 03:20:42;;;;;;;30.7;20.3;;;;;;;-0.6;88.25977;99011.31;;;;
2020/11/29 03:30:37;;;;;;;32;21.3;;;;;;;-0.6;88.19141;99007.86;;;;
2020/11/29 03:40:35;;;;;;;30.4;20.1;;;;;;;-0.62;88.24512;98997.48;;;;
2020/11/29 03:50:32;;;;;;;23.6;17.9;;;;;;;-0.58;88.50391;98992.55;;;;
2020/11/29 04:00:30;;;;;;;21.2;16.5;;;;;;;-0.56;88.16992;98991.31;;;;
2020/11/29 04:10:28;;;;;;;25.3;20.1;;;;;;;-0.64;88.5459;98972.28;;;;
2020/11/29 04:20:25;;;;;;;20.4;18.1;;;;;;;-0.5;88.45508;98984.29;;;;
2020/11/29 04:30:23;;;;;;;24.8;17.1;;;;;;;-0.53;88.63574;98967.03;;;;
2020/11/29 04:40:20;;;;;;;28;20.5;;;;;;;-0.37;88.1543;98981.44;;;;
2020/11/29 04:50:18;;;;;;;27.2;21.6;;;;;;;-0.37;88.26367;98962.91;;;;
2020/11/29 05:00:18;;;;;;;30.5;22.7;;;;;;;-0.36;88.30762;98974.3;;;;
2020/11/29 05:10:13;;;;;;;39.5;25.1;;;;;;;-0.43;88.79688;98965.66;;;;
2020/11/29 05:20:11;;;;;;;35.7;22.4;;;;;;;-0.38;88.91895;98963.92;;;;
2020/11/29 05:30:08;;;;;;;25;19.8;;;;;;;-0.38;89.18262;98958.63;;;;
2020/11/29 05:40:06;;;;;;;22.2;19.1;;;;;;;-0.32;89.12793;98968.34;;;;
2020/11/29 05:50:04;;;;;;;30.6;22.9;;;;;;;-0.31;89.20605;98971.8;;;;
2020/11/29 06:00:01;;;;;;;27.8;21.4;;;;;;;-0.25;89.10938;98987.58;;;;
2020/11/29 06:09:59;;;;;;;33.8;24.2;;;;;;;-0.28;89.30176;98990.69;;;;
2020/11/29 06:19:57;;;;;;;38.2;24.5;;;;;;;-0.2;89.42578;99005.41;;;;
2020/11/29 06:29:54;;;;;;;34.6;26.6;;;;;;;-0.17;89.14844;99016.36;;;;
2020/11/29 06:39:52;;;;;;;24.9;22.3;;;;;;;-0.09;88.94629;99028.47;;;;
2020/11/29 06:49:49;;;;;;;31.7;25.6;;;;;;;-0.04;88.76855;99039.2;;;;
2020/11/29 06:59:47;;;;;;;32.3;20.4;;;;;;;-0.02;88.67578;99045.88;;;;
2020/11/29 07:09:45;;;;;;;23.9;20.1;;;;;;;0.1;88.08496;99053.05;;;;
2020/11/29 07:19:43;;;;;;;31.6;24.2;;;;;;;0.23;87.77246;99064.24;;;;
2020/11/29 07:29:43;;;;;;;34.2;26.8;;;;;;;0.27;87.52734;99070.7;;;;
2020/11/29 07:39:38;;;;;;;38.3;29.6;;;;;;;0.29;87.10254;99073.11;;;;
2020/11/29 07:49:35;;;;;;;34.2;22.8;;;;;;;0.54;86.87891;99072.89;;;;
2020/11/29 07:59:33;;;;;;;45.6;30.4;;;;;;;0.52;86.91992;99077.64;;;;
2020/11/29 08:09:31;;;;;;;33.1;26.2;;;;;;;0.53;86.54785;99093.3;;;;
2020/11/29 08:19:29;;;;;;;32.9;25.4;;;;;;;0.59;86.51465;99080.98;;;;
2020/11/29 08:29:27;;;;;;;36.8;25.8;;;;;;;1.04;86.00293;99087.3;;;;
2020/11/29 08:39:24;;;;;;;39.7;29.9;;;;;;;1.03;85.35059;99098.94;;;;
2020/11/29 08:49:22;;;;;;;28.9;22.5;;;;;;;1.14;85.09863;99103.42;;;;
2020/11/29 08:59:20;;;;;;;32.4;23.6;;;;;;;1.36;83.96191;99103.59;;;;
2020/11/29 09:09:18;;;;;;;30.3;22.1;;;;;;;1.46;83.88379;99104.59;;;;
2020/11/29 09:19:16;;;;;;;25.6;19.6;;;;;;;1.41;83.23438;99107.17;;;;
2020/11/29 09:29:14;;;;;;;30.5;18.7;;;;;;;1.77;82.2998;99105.2;;;;
2020/11/29 09:39:12;;;;;;;34.7;25;;;;;;;2.16;80.07715;99106.95;;;;
2020/11/29 09:49:10;;;;;;;24.2;18.8;;;;;;;2.54;78.96484;99101.72;;;;
2020/11/29 09:59:07;;;;;;;22.8;14;;;;;;;2.6;78;99073.36;;;;
2020/11/29 10:09:05;;;;;;;15.7;11.7;;;;;;;2.72;76.53711;99091.87;;;;
2020/11/29 10:19:03;;;;;;;15.1;11;;;;;;;2.71;76.46777;99087.62;;;;
2020/11/29 10:29:01;;;;;;;25.5;17.7;;;;;;;2.67;76.65137;99079.31;;;;
2020/11/29 10:38:59;;;;;;;18.9;14.7;;;;;;;2.51;76.53516;99091.57;;;;
2020/11/29 10:48:58;;;;;;;21.4;15.8;;;;;;;2.81;76.23145;99083.22;;;;
2020/11/29 10:58:56;;;;;;;23.6;17.5;;;;;;;2.93;76.12207;99078.61;;;;
2020/11/29 11:08:54;;;;;;;20.5;15.2;;;;;;;2.79;75.03125;99077.34;;;;
2020/11/29 11:18:52;;;;;;;18.1;15.4;;;;;;;2.64;76.22559;99066.47;;;;
2020/11/29 11:28:50;;;;;;;20.8;17.9;;;;;;;2.67;76.49609;99084.64;;;;
2020/11/29 11:38:48;;;;;;;23;20.7;;;;;;;2.42;76.59375;99076.27;;;;
2020/11/29 11:48:46;;;;;;;22.7;16.3;;;;;;;2.36;77.50293;99082.56;;;;
2020/11/29 11:58:44;;;;;;;26.6;20.1;;;;;;;2.41;77.10254;99086.09;;;;
2020/11/29 12:08:43;;;;;;;36;26.2;;;;;;;2.39;76.59961;99079.41;;;;
2020/11/29 12:18:40;;;;;;;24.9;19;;;;;;;2.37;77.48242;99076.17;;;;
2020/11/29 12:28:38;;;;;;;29.8;25.5;;;;;;;2.35;76.83691;99070.3;;;;
2020/11/29 12:38:36;;;;;;;20.2;18.1;;;;;;;2.33;75.88184;99072.38;;;;
2020/11/29 12:48:34;;;;;;;14.9;12.1;;;;;;;2.34;75.49609;99072.15;;;;
2020/11/29 12:58:32;;;;;;;18;12.7;;;;;;;2.24;74.14844;99068.52;;;;
2020/11/29 13:08:30;;;;;;;19.9;15.4;;;;;;;2.2;75.01855;99073.52;;;;
2020/11/29 13:18:28;;;;;;;32.2;22.3;;;;;;;1.83;78.3252;99088.3;;;;
2020/11/29 13:28:26;;;;;;;27.2;21;;;;;;;1.74;79.40234;99095.83;;;;
2020/11/29 13:38:24;;;;;;;25.3;21.8;;;;;;;1.7;79.54883;99091.25;;;;
2020/11/29 13:48:22;;;;;;;26.6;21.9;;;;;;;1.51;80.89453;99096.74;;;;
2020/11/29 13:58:20;;;;;;;27.1;22.7;;;;;;;1.42;81.0752;99103.45;;;;
2020/11/29 14:08:17;;;;;;;33.9;27.3;;;;;;;1.38;81.81641;99101.52;;;;
2020/11/29 14:18:15;;;;;;;39.2;28.6;;;;;;;1.2;82.7959;99114.95;;;;
2020/11/29 14:28:13;;;;;;;51.8;33.9;;;;;;;1.1;83.8457;99114.73;;;;
2020/11/29 14:38:11;;;;;;;49.3;34.4;;;;;;;1.07;83.9834;99121.33;;;;
2020/11/29 14:48:09;;;;;;;38.5;28.6;;;;;;;0.94;84.94727;99124.2;;;;
2020/11/29 14:58:06;;;;;;;25.8;23.1;;;;;;;0.86;84.15234;99138.65;;;;
2020/11/29 15:08:04;;;;;;;21.4;15.2;;;;;;;0.58;84.38184;99154.42;;;;
2020/11/29 15:18:02;;;;;;;15.8;11.4;;;;;;;0.44;85.29004;99156.48;;;;
2020/11/29 15:28:00;;;;;;;11.7;9.8;;;;;;;0.3;85.81934;99154.26;;;;
2020/11/29 15:37:57;;;;;;;17.7;13;;;;;;;0.39;85.5752;99166.14;;;;
2020/11/29 15:47:55;;;;;;;27.7;20;;;;;;;0.29;86.00488;99181.8;;;;
2020/11/29 15:57:53;;;;;;;15.3;13;;;;;;;0.29;85.91699;99182.6;;;;
2020/11/29 16:07:50;;;;;;;21.7;14.5;;;;;;;0.27;86.27539;99181.22;;;;
2020/11/29 16:17:48;;;;;;;25.8;23;;;;;;;0.37;85.81152;99202.69;;;;
2020/11/29 16:27:46;;;;;;;19.9;14.6;;;;;;;0.45;85.1377;99208.45;;;;
2020/11/29 16:37:45;;;;;;;28.8;24;;;;;;;0.4;85.30078;99220.79;;;;
2020/11/29 16:47:44;;;;;;;21.1;17.3;;;;;;;0.29;85.42188;99222.37;;;;
2020/11/29 16:57:39;;;;;;;24;18.4;;;;;;;0.35;85.28125;99228.59;;;;
2020/11/29 17:07:37;;;;;;;38.7;23.5;;;;;;;0.3;85.55566;99233.78;;;;
2020/11/29 17:17:34;;;;;;;33;21.8;;;;;;;0.3;85.28125;99236.44;;;;
2020/11/29 17:27:32;;;;;;;38.1;27.2;;;;;;;0.3;85.43555;99233.78;;;;
2020/11/29 17:37:30;;;;;;;32.3;22.9;;;;;;;0.19;85.32617;99240.66;;;;
2020/11/29 17:47:27;;;;;;;32;20.9;;;;;;;0.09;85.45996;99258.94;;;;
2020/11/29 17:57:25;;;;;;;27.3;21.2;;;;;;;0.1;84.66016;99260.56;;;;
2020/11/29 18:07:23;;;;;;;38.1;27.1;;;;;;;0.01;84.80664;99264.53;;;;
2020/11/29 18:17:21;;;;;;;32.1;23.5;;;;;;;-0.17;85.68262;99259.23;;;;
2020/11/29 18:27:18;;;;;;;46;31.8;;;;;;;-0.33;86.04492;99268.59;;;;
2020/11/29 18:37:16;;;;;;;52.8;29.7;;;;;;;-0.24;85.26172;99284.98;;;;
2020/11/29 18:47:13;;;;;;;40.3;31.4;;;;;;;-0.23;85.11035;99295.38;;;;
2020/11/29 18:57:11;;;;;;;35.8;23;;;;;;;-0.26;85.24609;99310.89;;;;
2020/11/29 19:07:10;;;;;;;32;28.2;;;;;;;-0.2;85.50195;99308.17;;;;
2020/11/29 19:17:07;;;;;;;36.6;26.7;;;;;;;-0.18;86.18359;99334.45;;;;
2020/11/29 19:27:04;;;;;;;37.1;30.6;;;;;;;-0.23;86.1084;99332.45;;;;
2020/11/29 19:37:02;;;;;;;77.1;66.2;;;;;;;-0.16;86.15625;99337.69;;;;
2020/11/29 19:46:59;;;;;;;36.3;28.1;;;;;;;-0.1;85.82813;99340.26;;;;
2020/11/29 19:56:58;;;;;;;69.8;46.9;;;;;;;-0.2;86.00684;99339.96;;;;
2020/11/29 20:06:55;;;;;;;52.7;35.1;;;;;;;-0.11;85.96973;99346.61;;;;
2020/11/29 20:16:52;;;;;;;50.8;39.4;;;;;;;-0.25;86.19336;99345.13;;;;
2020/11/29 20:26:51;;;;;;;48.5;39;;;;;;;-0.24;85.64648;99346.72;;;;
2020/11/29 20:36:48;;;;;;;61.9;47.1;;;;;;;-0.31;85.06152;99358.43;;;;
2020/11/29 20:46:48;;;;;;;65.5;41.5;;;;;;;-0.54;85.62891;99364.32;;;;
2020/11/29 20:56:45;;;;;;;55.2;39.6;;;;;;;-0.57;85.9873;99373.52;;;;
2020/11/29 21:06:41;;;;;;;49.5;36.9;;;;;;;-0.57;86.39063;99377.99;;;;
2020/11/29 21:16:38;;;;;;;50.7;37.4;;;;;;;-0.58;86.65234;99384.3;;;;
2020/11/29 21:26:36;;;;;;;43.5;32.2;;;;;;;-0.48;86.43262;99387.27;;;;
2020/11/29 21:36:33;;;;;;;50.8;31.2;;;;;;;-0.54;87.80078;99391.61;;;;
2020/11/29 21:46:31;;;;;;;42.2;27.9;;;;;;;-0.52;87.36426;99388.73;;;;
2020/11/29 21:56:29;;;;;;;46.8;31;;;;;;;-0.51;87.08301;99393.01;;;;
2020/11/29 22:06:26;;;;;;;36.5;27.4;;;;;;;-0.46;85.99805;99395.83;;;;
2020/11/29 22:16:24;;;;;;;37.1;27.3;;;;;;;-0.77;86.34082;99385.28;;;;
2020/11/29 22:26:22;;;;;;;46.7;30.9;;;;;;;-0.84;85.83301;99387.16;;;;
2020/11/29 22:36:19;;;;;;;51.6;32.6;;;;;;;-0.96;85.99609;99392.31;;;;
2020/11/29 22:46:17;;;;;;;48.9;39.2;;;;;;;-1.02;85.45703;99399.28;;;;
2020/11/29 22:56:14;;;;;;;53.9;37.2;;;;;;;-1.09;86.93164;99402.98;;;;
2020/11/29 23:06:12;;;;;;;60.2;34.6;;;;;;;-1.12;86.49805;99400.77;;;;
2020/11/29 23:16:09;;;;;;;50;32.7;;;;;;;-1.2;86.33008;99396.53;;;;
2020/11/29 23:26:07;;;;;;;40.2;31.6;;;;;;;-1.37;86.08594;99423.66;;;;
2020/11/29 23:36:04;;;;;;;38.6;31.1;;;;;;;-1.45;86.75879;99426.53;;;;
2020/11/29 23:46:02;;;;;;;41.7;32.9;;;;;;;-1.59;87.14746;99431.06;;;;
2020/11/29 23:55:59;;;;;;;54;35;;;;;;;-1.8;86.83008;99431.32;;;;
